KMVE

Montevideo-Chippewa County Airport

Montevideo, Minnesota, USA
METAR KMVE 221735Z AUTO 15006KT 10SM CLR 23/14 A3002 RMK AO2
Observed Flight Rules
May-22 @ 17:35 UTC (19 minutes ago) Visual Flight Rules
Wind Visibility Clouds
150° at 6 knots 10 miles
  • Clear skies
Temperatures Readings
Current 23°C / 73°F
Dewpoint 14°C / 57°F
Humidity 57%
Altimeter 30.02" Hg
Pressure 1017 hPa
Elevation 315
METAR KMVE 221735Z AUTO 15006KT 10SM CLR 23/14 A3002 RMK AO2
Observed Flight Rules
May-22 @ 17:35 UTC
(19 minutes ago)
VFR
Wind Visibility
150° at 6 knots 10 miles
Clouds
  • Clear skies
Temperature Dewpoint
23°C / 73°F 14°C / 57°F
Humidity Altimeter Pressure
57% 30.02" Hg 1017 hPa